createdAt,value
2023-04-23T00:02:01.073Z,69.00
2023-04-23T00:05:08.278Z,69.11
2023-04-23T00:08:14.936Z,69.25
2023-04-23T00:11:21.556Z,69.37
2023-04-23T00:14:29.537Z,69.48
2023-04-23T00:17:35.651Z,69.42
2023-04-23T00:20:42.783Z,69.43
2023-04-23T00:23:50.864Z,69.50
2023-04-23T00:26:56.358Z,69.58
2023-04-23T00:30:02.866Z,69.61
2023-04-23T00:33:09.484Z,69.68
2023-04-23T00:36:15.194Z,69.76
2023-04-23T00:39:22.388Z,69.84
2023-04-23T00:42:28.228Z,69.77
2023-04-23T00:45:33.065Z,69.74
2023-04-23T00:48:40.735Z,69.83
2023-04-23T00:51:46.815Z,69.86
2023-04-23T00:54:52.490Z,69.81
2023-04-23T00:57:58.902Z,69.81
2023-04-23T01:01:08.348Z,69.74
2023-04-23T01:04:16.185Z,69.83
2023-04-23T01:07:22.793Z,69.92
2023-04-23T01:10:28.250Z,70.03
2023-04-23T01:13:35.912Z,70.09
2023-04-23T01:16:46.027Z,70.19
2023-04-23T01:19:52.445Z,70.18
2023-04-23T01:22:58.570Z,70.23
2023-04-23T01:26:05.726Z,70.21
2023-04-23T01:29:11.703Z,70.28
2023-04-23T01:32:18.016Z,70.29
2023-04-23T01:35:25.447Z,70.23
2023-04-23T01:38:30.675Z,70.30
2023-04-23T01:41:37.434Z,70.40
2023-04-23T01:44:42.998Z,70.41
2023-04-23T01:47:51.486Z,70.42
2023-04-23T01:50:58.982Z,70.51
2023-04-23T01:54:05.537Z,70.53
2023-04-23T01:57:12.273Z,70.56
2023-04-23T02:00:24.206Z,70.60
2023-04-23T02:03:29.697Z,70.49
2023-04-23T02:06:35.807Z,70.56
2023-04-23T02:09:42.287Z,70.65
2023-04-23T02:12:49.388Z,70.61
2023-04-23T02:15:55.587Z,70.53
2023-04-23T02:19:02.753Z,70.60
2023-04-23T02:22:09.345Z,70.60
2023-04-23T02:25:14.944Z,70.59
2023-04-23T02:28:21.889Z,70.68
2023-04-23T02:31:28.678Z,70.84
2023-04-23T02:34:36.139Z,70.98
2023-04-23T02:37:44.365Z,70.91
2023-04-23T02:40:50.519Z,70.92
2023-04-23T02:43:56.828Z,71.06
2023-04-23T02:47:03.747Z,71.12
2023-04-23T02:50:13.036Z,71.14
2023-04-23T02:53:18.964Z,71.14
2023-04-23T02:56:24.208Z,71.21
2023-04-23T02:59:30.779Z,71.28
2023-04-23T03:02:36.900Z,71.34
2023-04-23T03:05:45.446Z,71.32
2023-04-23T03:08:51.712Z,71.33
2023-04-23T03:11:57.557Z,71.28
2023-04-23T03:15:02.608Z,71.15
2023-04-23T03:18:08.114Z,71.26
2023-04-23T03:21:13.377Z,71.47
2023-04-23T03:24:18.577Z,71.61
2023-04-23T03:27:23.937Z,71.57
2023-04-23T03:30:29.345Z,71.58
2023-04-23T03:33:35.202Z,71.66
2023-04-23T03:36:41.312Z,71.74
2023-04-23T03:39:47.295Z,71.75
2023-04-23T03:42:53.290Z,71.78
2023-04-23T03:45:59.924Z,71.88
2023-04-23T03:49:08.098Z,71.93
2023-04-23T03:52:15.174Z,71.97
2023-04-23T03:55:22.536Z,71.99
2023-04-23T03:58:28.142Z,71.93
2023-04-23T04:01:34.413Z,71.93
2023-04-23T04:04:40.667Z,72.02
2023-04-23T04:07:51.015Z,72.09
2023-04-23T04:10:57.415Z,72.16
2023-04-23T04:14:04.115Z,72.18
2023-04-23T04:17:09.498Z,72.24
2023-04-23T04:20:16.247Z,72.19
2023-04-23T04:23:21.828Z,72.14
2023-04-23T04:26:28.958Z,72.19
2023-04-23T04:29:34.946Z,72.28
2023-04-23T04:32:45.084Z,72.44
2023-04-23T04:35:52.616Z,72.49
2023-04-23T04:39:10.136Z,72.60
2023-04-23T04:42:16.219Z,72.72
2023-04-23T04:45:23.741Z,72.80
2023-04-23T04:48:30.353Z,72.86
2023-04-23T04:51:37.951Z,72.81
2023-04-23T04:54:43.623Z,72.81
2023-04-23T04:57:50.800Z,72.90
2023-04-23T05:01:00.090Z,72.98
2023-04-23T05:04:05.648Z,73.07
2023-04-23T05:07:12.895Z,73.17
2023-04-23T05:10:21.069Z,73.27
2023-04-23T05:13:28.184Z,73.34
2023-04-23T05:16:34.477Z,73.43
2023-04-23T05:19:40.322Z,73.50
2023-04-23T05:22:46.282Z,73.57
2023-04-23T05:25:54.730Z,73.64
2023-04-23T05:29:00.925Z,73.69
2023-04-23T05:32:06.520Z,73.76
2023-04-23T05:35:14.202Z,73.81
2023-04-23T05:38:20.500Z,73.87
2023-04-23T05:41:27.059Z,73.91
2023-04-23T05:44:33.750Z,73.99
2023-04-23T05:47:40.967Z,73.98
2023-04-23T05:50:46.826Z,73.96
2023-04-23T05:53:53.513Z,73.93
2023-04-23T05:56:58.891Z,73.92
2023-04-23T06:00:04.939Z,73.94
2023-04-23T06:03:14.901Z,73.94
2023-04-23T06:06:22.155Z,73.92
2023-04-23T06:09:28.767Z,73.93
2023-04-23T06:12:35.359Z,73.94
2023-04-23T06:15:41.307Z,74.00
2023-04-23T06:18:49.059Z,74.02
2023-04-23T06:21:54.431Z,74.04
2023-04-23T06:25:00.605Z,74.08
2023-04-23T06:28:08.318Z,74.09
2023-04-23T06:31:16.003Z,74.12
2023-04-23T06:34:22.196Z,74.09
2023-04-23T06:37:30.172Z,74.07
2023-04-23T06:40:36.883Z,74.07
2023-04-23T06:43:45.008Z,74.08
2023-04-23T06:46:58.532Z,74.12
2023-04-23T06:50:05.403Z,74.09
2023-04-23T06:53:11.662Z,74.08
2023-04-23T06:56:18.352Z,74.03
2023-04-23T06:59:24.984Z,74.00
2023-04-23T07:02:32.123Z,73.92
2023-04-23T07:05:37.605Z,73.90
2023-04-23T07:08:43.398Z,73.79
2023-04-23T07:11:49.330Z,73.71
2023-04-23T07:14:55.837Z,73.69
2023-04-23T07:18:03.057Z,73.66
2023-04-23T07:21:10.307Z,73.61
2023-04-23T07:24:16.899Z,73.63
2023-04-23T07:27:22.958Z,73.59
2023-04-23T07:30:30.146Z,73.47
2023-04-23T07:33:37.518Z,73.34
2023-04-23T07:36:44.235Z,73.26
2023-04-23T07:39:49.655Z,73.19
2023-04-23T07:42:58.721Z,73.12
2023-04-23T07:46:05.366Z,73.03
2023-04-23T07:49:11.807Z,72.92
2023-04-23T07:52:16.630Z,72.76
2023-04-23T07:55:24.385Z,72.57
2023-04-23T07:58:30.184Z,72.48
2023-04-23T08:01:36.079Z,72.31
2023-04-23T08:04:43.063Z,72.18
2023-04-23T08:07:49.323Z,72.06
2023-04-23T08:10:55.231Z,71.91
2023-04-23T08:14:01.611Z,71.75
2023-04-23T08:17:07.551Z,71.56
2023-04-23T08:20:15.180Z,71.30
2023-04-23T08:23:23.531Z,71.13
2023-04-23T08:26:30.992Z,70.89
2023-04-23T08:29:38.132Z,70.66
2023-04-23T08:32:46.028Z,70.48
2023-04-23T08:35:53.080Z,70.25
2023-04-23T08:38:58.920Z,70.04
2023-04-23T08:42:09.027Z,69.88
2023-04-23T08:45:15.346Z,69.67
2023-04-23T08:48:27.561Z,69.42
2023-04-23T08:51:33.818Z,69.13
2023-04-23T08:54:43.532Z,68.89
2023-04-23T08:57:50.412Z,68.73
2023-04-23T09:00:57.752Z,68.64
2023-04-23T09:04:03.339Z,68.44
2023-04-23T09:07:13.054Z,67.97
2023-04-23T09:10:20.343Z,67.64
2023-04-23T09:13:27.437Z,67.30
2023-04-23T09:16:33.301Z,66.97
2023-04-23T09:19:40.078Z,66.70
2023-04-23T09:22:59.525Z,66.37
2023-04-23T09:26:09.844Z,66.24
2023-04-23T09:29:17.569Z,65.95
2023-04-23T09:32:25.040Z,65.74
2023-04-23T09:35:33.130Z,65.46
2023-04-23T09:38:38.942Z,65.21
2023-04-23T09:41:45.817Z,64.90
2023-04-23T09:44:53.093Z,64.66
2023-04-23T09:48:05.882Z,64.41
2023-04-23T09:51:10.601Z,64.17
2023-04-23T09:54:18.724Z,63.98
2023-04-23T09:57:26.094Z,63.80
2023-04-23T10:00:38.064Z,63.55
2023-04-23T10:03:43.580Z,63.21
2023-04-23T10:07:02.372Z,62.95
2023-04-23T10:09:52.487Z,62.75
2023-04-23T10:12:53.476Z,62.30
2023-04-23T10:15:35.429Z,61.94
2023-04-23T10:18:29.967Z,61.63
2023-04-23T10:21:50.035Z,61.40
2023-04-23T10:24:44.312Z,61.13
2023-04-23T10:27:54.679Z,60.93
2023-04-23T10:31:02.877Z,60.67
2023-04-23T10:34:10.689Z,60.34
2023-04-23T10:37:16.551Z,60.24
2023-04-23T10:40:28.411Z,60.18
2023-04-23T10:43:34.678Z,60.14
2023-04-23T10:46:46.557Z,59.89
2023-04-23T10:49:53.711Z,59.43
2023-04-23T10:53:05.284Z,58.86
2023-04-23T10:56:22.649Z,58.67
2023-04-23T10:59:36.850Z,58.34
2023-04-23T11:02:43.497Z,58.22
2023-04-23T11:05:50.970Z,58.23
2023-04-23T11:09:09.903Z,58.00
2023-04-23T11:12:16.780Z,57.88
2023-04-23T11:15:31.312Z,57.83
2023-04-23T11:18:39.019Z,57.75
2023-04-23T11:22:21.444Z,57.48
2023-04-23T11:25:39.204Z,57.30
2023-04-23T11:28:45.087Z,57.06
2023-04-23T11:32:01.433Z,56.88
2023-04-23T11:35:01.650Z,56.67
2023-04-23T11:38:07.929Z,56.49
2023-04-23T11:41:15.091Z,56.48
2023-04-23T11:44:20.319Z,56.32
2023-04-23T11:47:28.539Z,55.78
2023-04-23T11:50:39.948Z,55.32
2023-04-23T11:53:46.172Z,55.12
2023-04-23T11:56:52.760Z,54.93
2023-04-23T11:59:58.757Z,54.72
2023-04-23T12:03:16.624Z,54.41
2023-04-23T12:06:22.199Z,54.40
2023-04-23T12:09:30.174Z,54.20
2023-04-23T12:12:36.281Z,53.95
2023-04-23T12:15:42.870Z,53.54
2023-04-23T12:18:54.967Z,53.41
2023-04-23T12:22:14.899Z,53.36
2023-04-23T12:25:21.124Z,53.25
2023-04-23T12:28:28.507Z,53.14
2023-04-23T12:31:40.465Z,52.97
2023-04-23T12:34:48.546Z,52.73
2023-04-23T12:37:55.967Z,52.52
2023-04-23T12:41:02.381Z,52.23
2023-04-23T12:44:08.139Z,51.91
2023-04-23T12:47:17.798Z,51.78
2023-04-23T12:50:25.365Z,51.80
2023-04-23T12:53:32.559Z,51.83
2023-04-23T12:56:38.045Z,51.64
2023-04-23T12:59:44.196Z,51.45
2023-04-23T13:02:51.191Z,51.11
2023-04-23T13:05:57.930Z,50.99
2023-04-23T13:09:05.591Z,50.93
2023-04-23T13:12:10.558Z,50.79
2023-04-23T13:15:16.377Z,50.54
2023-04-23T13:18:22.635Z,50.42
2023-04-23T13:21:28.964Z,50.27
2023-04-23T13:24:35.706Z,50.24
2023-04-23T13:27:43.616Z,49.96
2023-04-23T13:30:48.993Z,49.86
2023-04-23T13:33:55.483Z,49.69
2023-04-23T13:37:01.509Z,49.48
2023-04-23T13:40:07.654Z,49.21
2023-04-23T13:43:14.155Z,48.93
2023-04-23T13:46:21.608Z,48.72
2023-04-23T13:49:27.390Z,48.59
2023-04-23T13:52:34.669Z,48.37
2023-04-23T13:55:40.273Z,48.12
2023-04-23T13:58:48.596Z,48.02
2023-04-23T14:01:58.119Z,47.87
2023-04-23T14:05:04.675Z,47.82
2023-04-23T14:08:10.424Z,47.75
2023-04-23T14:11:17.088Z,47.66
2023-04-23T14:14:22.007Z,47.35
2023-04-23T14:17:27.615Z,47.20
2023-04-23T14:20:34.578Z,47.06
2023-04-23T14:23:59.476Z,46.81
2023-04-23T14:27:05.771Z,46.77
2023-04-23T14:30:15.468Z,46.62
2023-04-23T14:33:21.002Z,46.58
2023-04-23T14:36:27.493Z,46.56
2023-04-23T14:39:33.196Z,46.53
2023-04-23T14:42:38.088Z,46.74
2023-04-23T14:45:44.914Z,46.49
2023-04-23T14:48:51.667Z,45.95
2023-04-23T14:52:01.105Z,45.82
2023-04-23T14:55:06.501Z,45.48
2023-04-23T14:58:12.944Z,45.01
2023-04-23T15:01:17.975Z,44.79
2023-04-23T15:04:26.464Z,44.42
2023-04-23T15:07:33.044Z,44.18
2023-04-23T15:10:38.115Z,44.15
2023-04-23T15:14:13.103Z,44.31
2023-04-23T15:17:19.238Z,44.44
2023-04-23T15:20:25.989Z,44.34
2023-04-23T15:23:32.615Z,44.26
2023-04-23T15:26:40.843Z,43.99
2023-04-23T15:29:48.774Z,43.91
2023-04-23T15:32:54.714Z,44.02
2023-04-23T15:36:02.917Z,44.10
2023-04-23T15:39:08.144Z,44.25
2023-04-23T15:42:13.136Z,44.43
2023-04-23T15:45:20.992Z,44.04
2023-04-23T15:48:26.640Z,44.03
2023-04-23T15:51:34.787Z,43.93
2023-04-23T15:54:40.519Z,43.48
2023-04-23T15:57:46.367Z,43.02
2023-04-23T16:00:51.557Z,42.61
2023-04-23T16:07:05.950Z,42.85
2023-04-23T16:10:11.810Z,42.68
2023-04-23T16:13:18.837Z,42.62
2023-04-23T16:16:24.219Z,42.79
2023-04-23T16:19:32.214Z,43.02
2023-04-23T16:22:38.733Z,43.23
2023-04-23T16:25:45.037Z,43.66
2023-04-23T16:28:56.377Z,44.05
2023-04-23T16:31:58.105Z,44.33
2023-04-23T16:35:03.599Z,44.56
2023-04-23T16:38:10.186Z,44.77
2023-04-23T16:41:15.630Z,44.93
2023-04-23T16:44:23.720Z,44.98
2023-04-23T16:47:29.560Z,45.01
2023-04-23T16:50:36.159Z,45.23
2023-04-23T16:53:43.187Z,45.50
2023-04-23T16:56:50.872Z,45.78
2023-04-23T16:59:56.287Z,46.19
2023-04-23T17:03:02.475Z,46.38
2023-04-23T17:06:23.450Z,46.51
2023-04-23T17:09:29.498Z,46.64
2023-04-23T17:12:35.900Z,46.74
2023-04-23T17:15:43.186Z,46.89
2023-04-23T17:18:50.756Z,47.15
2023-04-23T17:21:56.291Z,47.38
2023-04-23T17:25:03.269Z,47.61
2023-04-23T17:28:09.283Z,47.91
2023-04-23T17:31:15.196Z,48.22
2023-04-23T17:34:20.802Z,48.53
2023-04-23T17:37:26.128Z,48.79
2023-04-23T17:40:32.154Z,49.02
2023-04-23T17:43:40.575Z,49.19
2023-04-23T17:46:47.817Z,49.46
2023-04-23T17:49:54.147Z,49.75
2023-04-23T17:52:59.184Z,50.04
2023-04-23T17:56:06.294Z,50.32
2023-04-23T17:59:12.096Z,50.56
2023-04-23T18:02:18.748Z,50.77
2023-04-23T18:05:27.485Z,50.90
2023-04-23T18:08:33.608Z,51.10
2023-04-23T18:11:39.352Z,51.32
2023-04-23T18:14:45.161Z,51.57
2023-04-23T18:17:50.989Z,51.79
2023-04-23T18:20:55.834Z,52.06
2023-04-23T18:24:02.195Z,52.35
2023-04-23T18:27:11.195Z,52.66
2023-04-23T18:30:18.472Z,52.87
2023-04-23T18:34:05.414Z,53.06
2023-04-23T18:37:13.314Z,53.25
2023-04-23T18:40:21.602Z,53.46
2023-04-23T18:43:29.496Z,53.67
2023-04-23T18:46:36.278Z,53.93
2023-04-23T18:50:07.259Z,54.07
2023-04-23T18:53:13.281Z,54.12
2023-04-23T18:56:19.415Z,54.42
2023-04-23T18:59:26.306Z,54.65
2023-04-23T19:02:35.954Z,54.92
2023-04-23T19:05:41.266Z,55.20
2023-04-23T19:08:50.124Z,55.46
2023-04-23T19:11:57.026Z,55.71
2023-04-23T19:15:01.972Z,55.94
2023-04-23T19:18:08.629Z,56.10
2023-04-23T19:21:16.430Z,56.13
2023-04-23T19:24:22.014Z,56.20
2023-04-23T19:27:29.570Z,56.34
2023-04-23T19:30:34.891Z,56.49
2023-04-23T19:33:39.988Z,56.60
2023-04-23T19:36:45.642Z,56.79
2023-04-23T19:39:52.062Z,56.94
2023-04-23T19:42:59.774Z,57.13
2023-04-23T19:46:09.133Z,57.25
2023-04-23T19:49:15.614Z,57.36
2023-04-23T19:52:22.532Z,57.58
2023-04-23T19:55:30.575Z,57.79
2023-04-23T19:58:37.653Z,57.88
2023-04-23T20:01:43.899Z,58.02
2023-04-23T20:04:52.304Z,58.13
2023-04-23T20:07:59.717Z,58.20
2023-04-23T20:11:05.911Z,58.35
2023-04-23T20:14:11.203Z,58.47
2023-04-23T20:17:17.659Z,58.63
2023-04-23T20:20:25.147Z,58.75
2023-04-23T20:23:30.816Z,58.87
2023-04-23T20:26:36.406Z,58.97
2023-04-23T20:29:42.146Z,59.11
2023-04-23T20:32:47.559Z,59.22
2023-04-23T20:35:54.944Z,59.38
2023-04-23T20:39:01.462Z,59.49
2023-04-23T20:42:08.112Z,59.57
2023-04-23T20:45:15.460Z,59.69
2023-04-23T20:48:25.732Z,59.91
2023-04-23T20:51:31.205Z,60.12
2023-04-23T20:54:37.177Z,60.23
2023-04-23T20:57:45.649Z,60.30
2023-04-23T21:00:52.658Z,60.33
2023-04-23T21:04:00.565Z,60.38
2023-04-23T21:07:08.775Z,60.55
2023-04-23T21:10:16.550Z,60.73
2023-04-23T21:13:25.307Z,60.90
2023-04-23T21:16:32.009Z,60.98
2023-04-23T21:19:38.364Z,61.03
2023-04-23T21:22:43.448Z,61.09
2023-04-23T21:25:49.683Z,61.22
2023-04-23T21:28:56.157Z,61.32
2023-04-23T21:32:04.520Z,61.40
2023-04-23T21:35:11.277Z,61.47
2023-04-23T21:38:18.780Z,61.55
2023-04-23T21:41:25.771Z,61.61
2023-04-23T21:44:33.517Z,61.65
2023-04-23T21:47:39.292Z,61.79
2023-04-23T21:50:46.801Z,61.93
2023-04-23T21:53:52.900Z,62.10
2023-04-23T21:56:59.365Z,62.24
2023-04-23T22:00:06.336Z,62.24
2023-04-23T22:03:17.619Z,62.26
2023-04-23T22:06:24.126Z,62.29
2023-04-23T22:09:30.447Z,62.44
2023-04-23T22:12:36.970Z,62.51
2023-04-23T22:15:43.448Z,62.66
2023-04-23T22:18:49.372Z,62.77
2023-04-23T22:21:56.876Z,62.75
2023-04-23T22:25:02.246Z,62.73
2023-04-23T22:28:09.360Z,62.86
2023-04-23T22:31:16.255Z,63.01
2023-04-23T22:34:23.244Z,63.13
2023-04-23T22:37:29.406Z,63.28
2023-04-23T22:40:34.942Z,63.38
2023-04-23T22:43:41.206Z,63.42
2023-04-23T22:46:47.563Z,63.53
2023-04-23T22:49:52.827Z,63.62
2023-04-23T22:52:58.925Z,63.63
2023-04-23T22:56:05.616Z,63.53
2023-04-23T22:59:14.781Z,63.48
2023-04-23T23:02:20.506Z,63.61
2023-04-23T23:05:27.050Z,63.67
2023-04-23T23:08:34.175Z,63.71
2023-04-23T23:11:35.044Z,63.76
2023-04-23T23:14:36.278Z,63.84
2023-04-23T23:17:42.287Z,63.92
2023-04-23T23:20:53.575Z,64.05
2023-04-23T23:23:58.312Z,64.20
2023-04-23T23:27:06.513Z,64.45
2023-04-23T23:30:16.860Z,64.58
2023-04-23T23:33:22.811Z,64.64
2023-04-23T23:36:29.671Z,64.67
2023-04-23T23:39:37.915Z,64.74
2023-04-23T23:42:43.505Z,64.85
2023-04-23T23:45:49.710Z,64.79
2023-04-23T23:48:55.952Z,64.75
2023-04-23T23:52:02.367Z,64.77
2023-04-23T23:55:10.231Z,64.79
2023-04-23T23:58:16.612Z,64.86
